sensor_id;sensor_type;location;lat;lon;timestamp;P1;durP1;ratioP1;P2;durP2;ratioP2
76852;SDS011;65825;52.232;10.566;2023-01-20T00:01:09;21.27;;;8.82;;
76852;SDS011;65825;52.232;10.566;2023-01-20T00:03:36;24.05;;;9.45;;
76852;SDS011;65825;52.232;10.566;2023-01-20T00:06:02;19.35;;;8.35;;
76852;SDS011;65825;52.232;10.566;2023-01-20T00:08:27;23.48;;;8.60;;
76852;SDS011;65825;52.232;10.566;2023-01-20T00:10:53;22.13;;;8.95;;
76852;SDS011;65825;52.232;10.566;2023-01-20T00:13:18;23.07;;;8.97;;
76852;SDS011;65825;52.232;10.566;2023-01-20T00:15:43;25.63;;;9.50;;
76852;SDS011;65825;52.232;10.566;2023-01-20T00:18:08;18.40;;;8.67;;
76852;SDS011;65825;52.232;10.566;2023-01-20T00:20:34;23.50;;;9.32;;
76852;SDS011;65825;52.232;10.566;2023-01-20T00:22:59;22.05;;;8.60;;
76852;SDS011;65825;52.232;10.566;2023-01-20T00:25:24;27.00;;;8.73;;
76852;SDS011;65825;52.232;10.566;2023-01-20T00:27:50;16.98;;;8.68;;
76852;SDS011;65825;52.232;10.566;2023-01-20T00:30:17;21.55;;;8.27;;
76852;SDS011;65825;52.232;10.566;2023-01-20T00:32:42;17.92;;;7.25;;
76852;SDS011;65825;52.232;10.566;2023-01-20T00:35:11;16.30;;;7.90;;
76852;SDS011;65825;52.232;10.566;2023-01-20T00:37:36;23.48;;;9.02;;
76852;SDS011;65825;52.232;10.566;2023-01-20T00:40:02;21.30;;;7.85;;
76852;SDS011;65825;52.232;10.566;2023-01-20T00:42:27;17.70;;;7.93;;
76852;SDS011;65825;52.232;10.566;2023-01-20T00:44:53;21.40;;;8.43;;
76852;SDS011;65825;52.232;10.566;2023-01-20T00:47:18;19.63;;;8.50;;
76852;SDS011;65825;52.232;10.566;2023-01-20T00:49:45;20.90;;;9.20;;
76852;SDS011;65825;52.232;10.566;2023-01-20T00:52:10;20.27;;;8.43;;
76852;SDS011;65825;52.232;10.566;2023-01-20T00:54:36;18.67;;;8.00;;
76852;SDS011;65825;52.232;10.566;2023-01-20T00:57:01;21.83;;;8.77;;
76852;SDS011;65825;52.232;10.566;2023-01-20T00:59:26;21.10;;;8.57;;
76852;SDS011;65825;52.232;10.566;2023-01-20T01:01:52;23.63;;;8.70;;
76852;SDS011;65825;52.232;10.566;2023-01-20T01:04:17;22.13;;;8.65;;
76852;SDS011;65825;52.232;10.566;2023-01-20T01:06:42;21.03;;;8.70;;
76852;SDS011;65825;52.232;10.566;2023-01-20T01:09:08;22.97;;;9.10;;
76852;SDS011;65825;52.232;10.566;2023-01-20T01:11:33;23.23;;;8.23;;
76852;SDS011;65825;52.232;10.566;2023-01-20T01:13:58;20.20;;;8.57;;
76852;SDS011;65825;52.232;10.566;2023-01-20T01:16:23;22.57;;;8.70;;
76852;SDS011;65825;52.232;10.566;2023-01-20T01:18:51;18.87;;;8.13;;
76852;SDS011;65825;52.232;10.566;2023-01-20T01:21:17;25.40;;;8.70;;
76852;SDS011;65825;52.232;10.566;2023-01-20T01:23:42;18.67;;;8.33;;
76852;SDS011;65825;52.232;10.566;2023-01-20T01:26:08;19.88;;;8.38;;
76852;SDS011;65825;52.232;10.566;2023-01-20T01:28:34;18.55;;;7.50;;
76852;SDS011;65825;52.232;10.566;2023-01-20T01:31:10;18.98;;;7.55;;
76852;SDS011;65825;52.232;10.566;2023-01-20T01:33:38;22.30;;;8.32;;
76852;SDS011;65825;52.232;10.566;2023-01-20T01:36:03;17.38;;;8.32;;
76852;SDS011;65825;52.232;10.566;2023-01-20T01:38:29;18.52;;;7.75;;
76852;SDS011;65825;52.232;10.566;2023-01-20T01:40:54;20.60;;;8.18;;
76852;SDS011;65825;52.232;10.566;2023-01-20T01:45:53;19.25;;;8.13;;
76852;SDS011;65825;52.232;10.566;2023-01-20T01:48:19;16.30;;;7.63;;
76852;SDS011;65825;52.232;10.566;2023-01-20T01:50:52;17.33;;;7.82;;
76852;SDS011;65825;52.232;10.566;2023-01-20T01:53:22;17.55;;;7.57;;
76852;SDS011;65825;52.232;10.566;2023-01-20T01:55:50;13.98;;;7.25;;
76852;SDS011;65825;52.232;10.566;2023-01-20T01:58:21;16.55;;;7.10;;
76852;SDS011;65825;52.232;10.566;2023-01-20T02:00:50;20.13;;;7.45;;
76852;SDS011;65825;52.232;10.566;2023-01-20T02:03:17;19.77;;;8.57;;
76852;SDS011;65825;52.232;10.566;2023-01-20T02:05:43;18.27;;;7.55;;
76852;SDS011;65825;52.232;10.566;2023-01-20T02:08:08;20.33;;;8.00;;
76852;SDS011;65825;52.232;10.566;2023-01-20T02:10:34;21.93;;;8.03;;
76852;SDS011;65825;52.232;10.566;2023-01-20T02:12:59;24.33;;;8.97;;
76852;SDS011;65825;52.232;10.566;2023-01-20T02:15:26;18.80;;;7.85;;
76852;SDS011;65825;52.232;10.566;2023-01-20T02:20:32;19.08;;;7.50;;
76852;SDS011;65825;52.232;10.566;2023-01-20T02:26:43;26.50;;;8.50;;
76852;SDS011;65825;52.232;10.566;2023-01-20T02:32:10;15.23;;;7.03;;
76852;SDS011;65825;52.232;10.566;2023-01-20T02:34:57;17.38;;;7.15;;
76852;SDS011;65825;52.232;10.566;2023-01-20T02:43:29;19.30;;;7.55;;
76852;SDS011;65825;52.232;10.566;2023-01-20T02:46:02;20.42;;;7.85;;
76852;SDS011;65825;52.232;10.566;2023-01-20T02:48:37;21.98;;;8.82;;
76852;SDS011;65825;52.232;10.566;2023-01-20T02:52:09;22.83;;;7.88;;
76852;SDS011;65825;52.232;10.566;2023-01-20T02:54:35;18.40;;;7.97;;
76852;SDS011;65825;52.232;10.566;2023-01-20T02:57:04;21.60;;;8.23;;
76852;SDS011;65825;52.232;10.566;2023-01-20T02:59:34;18.60;;;8.15;;
76852;SDS011;65825;52.232;10.566;2023-01-20T03:02:05;19.80;;;7.75;;
76852;SDS011;65825;52.232;10.566;2023-01-20T03:04:36;20.15;;;7.75;;
76852;SDS011;65825;52.232;10.566;2023-01-20T03:07:04;16.13;;;8.07;;
76852;SDS011;65825;52.232;10.566;2023-01-20T03:09:36;20.98;;;8.50;;
76852;SDS011;65825;52.232;10.566;2023-01-20T03:12:08;17.77;;;7.50;;
76852;SDS011;65825;52.232;10.566;2023-01-20T03:14:41;21.50;;;8.73;;
76852;SDS011;65825;52.232;10.566;2023-01-20T03:17:06;17.13;;;8.38;;
76852;SDS011;65825;52.232;10.566;2023-01-20T03:19:32;17.00;;;7.53;;
76852;SDS011;65825;52.232;10.566;2023-01-20T03:21:57;20.08;;;8.23;;
76852;SDS011;65825;52.232;10.566;2023-01-20T03:24:25;22.33;;;8.68;;
76852;SDS011;65825;52.232;10.566;2023-01-20T03:26:53;22.63;;;8.65;;
76852;SDS011;65825;52.232;10.566;2023-01-20T03:29:19;19.65;;;8.13;;
76852;SDS011;65825;52.232;10.566;2023-01-20T03:31:47;16.03;;;7.70;;
76852;SDS011;65825;52.232;10.566;2023-01-20T03:34:19;19.40;;;7.38;;
76852;SDS011;65825;52.232;10.566;2023-01-20T03:36:46;19.90;;;7.80;;
76852;SDS011;65825;52.232;10.566;2023-01-20T03:39:13;15.98;;;7.22;;
76852;SDS011;65825;52.232;10.566;2023-01-20T03:41:41;19.90;;;8.30;;
76852;SDS011;65825;52.232;10.566;2023-01-20T03:47:06;21.08;;;8.73;;
76852;SDS011;65825;52.232;10.566;2023-01-20T03:52:37;15.25;;;7.68;;
76852;SDS011;65825;52.232;10.566;2023-01-20T03:55:22;23.77;;;8.68;;
76852;SDS011;65825;52.232;10.566;2023-01-20T03:57:55;18.30;;;8.70;;
76852;SDS011;65825;52.232;10.566;2023-01-20T04:00:27;16.73;;;7.97;;
76852;SDS011;65825;52.232;10.566;2023-01-20T04:02:55;21.80;;;9.25;;
76852;SDS011;65825;52.232;10.566;2023-01-20T04:05:24;24.45;;;8.27;;
76852;SDS011;65825;52.232;10.566;2023-01-20T04:07:51;23.05;;;8.93;;
76852;SDS011;65825;52.232;10.566;2023-01-20T04:10:20;21.17;;;8.45;;
76852;SDS011;65825;52.232;10.566;2023-01-20T04:12:47;24.67;;;8.73;;
76852;SDS011;65825;52.232;10.566;2023-01-20T04:15:13;21.97;;;8.03;;
76852;SDS011;65825;52.232;10.566;2023-01-20T04:17:38;20.15;;;8.80;;
76852;SDS011;65825;52.232;10.566;2023-01-20T04:20:06;17.63;;;8.35;;
76852;SDS011;65825;52.232;10.566;2023-01-20T04:22:50;15.52;;;7.38;;
76852;SDS011;65825;52.232;10.566;2023-01-20T04:27:52;17.13;;;7.43;;
76852;SDS011;65825;52.232;10.566;2023-01-20T04:30:17;21.57;;;8.57;;
76852;SDS011;65825;52.232;10.566;2023-01-20T04:32:42;17.95;;;8.18;;
76852;SDS011;65825;52.232;10.566;2023-01-20T04:35:10;21.60;;;8.80;;
76852;SDS011;65825;52.232;10.566;2023-01-20T04:37:37;18.73;;;8.20;;
76852;SDS011;65825;52.232;10.566;2023-01-20T04:40:02;23.87;;;8.63;;
76852;SDS011;65825;52.232;10.566;2023-01-20T04:42:27;20.55;;;9.13;;
76852;SDS011;65825;52.232;10.566;2023-01-20T04:44:53;21.60;;;8.23;;
76852;SDS011;65825;52.232;10.566;2023-01-20T04:47:18;21.77;;;8.53;;
76852;SDS011;65825;52.232;10.566;2023-01-20T04:49:43;21.17;;;7.80;;
76852;SDS011;65825;52.232;10.566;2023-01-20T04:52:09;18.65;;;7.40;;
76852;SDS011;65825;52.232;10.566;2023-01-20T04:54:34;20.50;;;8.45;;
76852;SDS011;65825;52.232;10.566;2023-01-20T04:57:00;18.97;;;8.87;;
76852;SDS011;65825;52.232;10.566;2023-01-20T04:59:27;24.88;;;10.02;;
76852;SDS011;65825;52.232;10.566;2023-01-20T05:01:52;16.90;;;8.13;;
76852;SDS011;65825;52.232;10.566;2023-01-20T05:04:17;19.00;;;8.10;;
76852;SDS011;65825;52.232;10.566;2023-01-20T05:06:43;18.87;;;8.53;;
76852;SDS011;65825;52.232;10.566;2023-01-20T05:09:12;19.27;;;8.13;;
76852;SDS011;65825;52.232;10.566;2023-01-20T05:11:39;16.90;;;8.45;;
76852;SDS011;65825;52.232;10.566;2023-01-20T05:14:05;23.85;;;10.23;;
76852;SDS011;65825;52.232;10.566;2023-01-20T05:16:30;25.87;;;9.70;;
76852;SDS011;65825;52.232;10.566;2023-01-20T05:18:57;18.52;;;8.55;;
76852;SDS011;65825;52.232;10.566;2023-01-20T05:21:23;22.73;;;9.52;;
76852;SDS011;65825;52.232;10.566;2023-01-20T05:23:48;24.00;;;8.40;;
76852;SDS011;65825;52.232;10.566;2023-01-20T05:26:13;18.57;;;7.63;;
76852;SDS011;65825;52.232;10.566;2023-01-20T05:28:39;16.90;;;7.80;;
76852;SDS011;65825;52.232;10.566;2023-01-20T05:33:31;20.00;;;9.47;;
76852;SDS011;65825;52.232;10.566;2023-01-20T05:35:56;21.03;;;8.93;;
76852;SDS011;65825;52.232;10.566;2023-01-20T05:38:21;21.50;;;9.20;;
76852;SDS011;65825;52.232;10.566;2023-01-20T05:40:46;16.73;;;8.40;;
76852;SDS011;65825;52.232;10.566;2023-01-20T05:43:12;21.47;;;8.37;;
76852;SDS011;65825;52.232;10.566;2023-01-20T05:45:37;17.67;;;8.17;;
76852;SDS011;65825;52.232;10.566;2023-01-20T05:48:02;19.48;;;7.65;;
76852;SDS011;65825;52.232;10.566;2023-01-20T05:50:28;19.15;;;7.78;;
76852;SDS011;65825;52.232;10.566;2023-01-20T05:52:53;19.50;;;7.78;;
76852;SDS011;65825;52.232;10.566;2023-01-20T05:55:19;19.17;;;7.65;;
76852;SDS011;65825;52.232;10.566;2023-01-20T05:57:45;15.48;;;7.07;;
76852;SDS011;65825;52.232;10.566;2023-01-20T06:00:10;18.83;;;7.43;;
76852;SDS011;65825;52.232;10.566;2023-01-20T06:02:36;17.50;;;7.55;;
76852;SDS011;65825;52.232;10.566;2023-01-20T06:05:02;15.10;;;7.72;;
76852;SDS011;65825;52.232;10.566;2023-01-20T06:07:27;14.75;;;6.80;;
76852;SDS011;65825;52.232;10.566;2023-01-20T06:09:54;19.27;;;7.20;;
76852;SDS011;65825;52.232;10.566;2023-01-20T06:12:19;18.42;;;7.10;;
76852;SDS011;65825;52.232;10.566;2023-01-20T06:14:45;16.87;;;7.77;;
76852;SDS011;65825;52.232;10.566;2023-01-20T06:17:10;14.57;;;7.47;;
76852;SDS011;65825;52.232;10.566;2023-01-20T06:19:35;21.47;;;8.57;;
76852;SDS011;65825;52.232;10.566;2023-01-20T06:22:00;15.68;;;7.75;;
76852;SDS011;65825;52.232;10.566;2023-01-20T06:24:26;14.18;;;7.28;;
76852;SDS011;65825;52.232;10.566;2023-01-20T06:26:51;17.70;;;8.70;;
76852;SDS011;65825;52.232;10.566;2023-01-20T06:29:16;19.80;;;8.57;;
76852;SDS011;65825;52.232;10.566;2023-01-20T06:31:42;16.23;;;7.57;;
76852;SDS011;65825;52.232;10.566;2023-01-20T06:34:09;17.27;;;7.80;;
76852;SDS011;65825;52.232;10.566;2023-01-20T06:36:34;16.45;;;7.80;;
76852;SDS011;65825;52.232;10.566;2023-01-20T06:39:00;18.20;;;7.67;;
76852;SDS011;65825;52.232;10.566;2023-01-20T06:41:25;17.87;;;7.30;;
76852;SDS011;65825;52.232;10.566;2023-01-20T06:43:51;16.05;;;8.43;;
76852;SDS011;65825;52.232;10.566;2023-01-20T06:46:16;16.90;;;7.50;;
76852;SDS011;65825;52.232;10.566;2023-01-20T06:48:42;22.00;;;9.67;;
76852;SDS011;65825;52.232;10.566;2023-01-20T06:51:12;27.95;;;10.90;;
76852;SDS011;65825;52.232;10.566;2023-01-20T06:53:39;27.50;;;11.48;;
76852;SDS011;65825;52.232;10.566;2023-01-20T06:56:04;29.88;;;11.25;;
76852;SDS011;65825;52.232;10.566;2023-01-20T06:58:30;24.38;;;10.90;;
76852;SDS011;65825;52.232;10.566;2023-01-20T07:00:57;27.63;;;10.32;;
76852;SDS011;65825;52.232;10.566;2023-01-20T07:03:27;25.80;;;10.32;;
76852;SDS011;65825;52.232;10.566;2023-01-20T07:05:53;19.47;;;9.83;;
76852;SDS011;65825;52.232;10.566;2023-01-20T07:08:23;18.15;;;8.55;;
76852;SDS011;65825;52.232;10.566;2023-01-20T07:10:48;22.07;;;8.43;;
76852;SDS011;65825;52.232;10.566;2023-01-20T07:13:13;19.73;;;9.23;;
76852;SDS011;65825;52.232;10.566;2023-01-20T07:15:38;15.83;;;8.10;;
76852;SDS011;65825;52.232;10.566;2023-01-20T07:18:03;19.07;;;8.10;;
76852;SDS011;65825;52.232;10.566;2023-01-20T07:20:31;17.20;;;7.97;;
76852;SDS011;65825;52.232;10.566;2023-01-20T07:23:00;16.23;;;7.40;;
76852;SDS011;65825;52.232;10.566;2023-01-20T07:25:26;17.98;;;7.32;;
76852;SDS011;65825;52.232;10.566;2023-01-20T07:27:52;20.30;;;8.00;;
76852;SDS011;65825;52.232;10.566;2023-01-20T07:30:17;19.77;;;7.93;;
76852;SDS011;65825;52.232;10.566;2023-01-20T07:32:42;17.90;;;8.10;;
76852;SDS011;65825;52.232;10.566;2023-01-20T07:35:08;20.80;;;7.85;;
76852;SDS011;65825;52.232;10.566;2023-01-20T07:37:33;13.40;;;7.20;;
76852;SDS011;65825;52.232;10.566;2023-01-20T07:39:59;16.77;;;8.13;;
76852;SDS011;65825;52.232;10.566;2023-01-20T07:42:24;15.75;;;6.95;;
76852;SDS011;65825;52.232;10.566;2023-01-20T07:44:51;16.90;;;7.35;;
76852;SDS011;65825;52.232;10.566;2023-01-20T07:47:16;17.90;;;6.90;;
76852;SDS011;65825;52.232;10.566;2023-01-20T07:49:41;14.07;;;6.70;;
76852;SDS011;65825;52.232;10.566;2023-01-20T07:52:07;15.87;;;6.73;;
76852;SDS011;65825;52.232;10.566;2023-01-20T07:54:32;15.63;;;6.60;;
76852;SDS011;65825;52.232;10.566;2023-01-20T07:56:58;16.70;;;6.55;;
76852;SDS011;65825;52.232;10.566;2023-01-20T07:59:23;12.97;;;6.10;;
76852;SDS011;65825;52.232;10.566;2023-01-20T08:04:26;12.27;;;6.00;;
76852;SDS011;65825;52.232;10.566;2023-01-20T08:06:51;15.63;;;6.10;;
76852;SDS011;65825;52.232;10.566;2023-01-20T08:09:16;14.53;;;6.20;;
76852;SDS011;65825;52.232;10.566;2023-01-20T08:11:42;13.33;;;5.93;;
76852;SDS011;65825;52.232;10.566;2023-01-20T08:14:07;15.83;;;6.90;;
76852;SDS011;65825;52.232;10.566;2023-01-20T08:16:32;15.20;;;6.63;;
76852;SDS011;65825;52.232;10.566;2023-01-20T08:19:00;15.43;;;7.32;;
76852;SDS011;65825;52.232;10.566;2023-01-20T08:21:26;14.00;;;6.50;;
76852;SDS011;65825;52.232;10.566;2023-01-20T08:23:54;12.52;;;6.35;;
76852;SDS011;65825;52.232;10.566;2023-01-20T08:26:20;12.88;;;6.70;;
76852;SDS011;65825;52.232;10.566;2023-01-20T08:28:49;14.02;;;6.60;;
76852;SDS011;65825;52.232;10.566;2023-01-20T08:31:16;18.20;;;7.10;;
76852;SDS011;65825;52.232;10.566;2023-01-20T08:33:43;15.90;;;7.40;;
76852;SDS011;65825;52.232;10.566;2023-01-20T08:36:12;17.33;;;8.15;;
76852;SDS011;65825;52.232;10.566;2023-01-20T08:38:43;20.83;;;9.30;;
76852;SDS011;65825;52.232;10.566;2023-01-20T08:41:13;17.90;;;8.02;;
76852;SDS011;65825;52.232;10.566;2023-01-20T08:43:40;20.85;;;7.57;;
76852;SDS011;65825;52.232;10.566;2023-01-20T08:46:08;18.65;;;7.43;;
76852;SDS011;65825;52.232;10.566;2023-01-20T08:48:35;15.55;;;7.13;;
76852;SDS011;65825;52.232;10.566;2023-01-20T08:53:28;14.68;;;6.43;;
76852;SDS011;65825;52.232;10.566;2023-01-20T08:55:57;14.43;;;6.40;;
76852;SDS011;65825;52.232;10.566;2023-01-20T08:58:24;19.05;;;7.70;;
76852;SDS011;65825;52.232;10.566;2023-01-20T09:00:50;14.20;;;6.65;;
76852;SDS011;65825;52.232;10.566;2023-01-20T09:03:15;14.52;;;6.47;;
76852;SDS011;65825;52.232;10.566;2023-01-20T09:05:41;12.63;;;6.00;;
76852;SDS011;65825;52.232;10.566;2023-01-20T09:08:06;13.55;;;7.18;;
76852;SDS011;65825;52.232;10.566;2023-01-20T09:10:32;15.33;;;6.60;;
76852;SDS011;65825;52.232;10.566;2023-01-20T09:12:58;20.67;;;6.93;;
76852;SDS011;65825;52.232;10.566;2023-01-20T09:15:23;15.32;;;7.25;;
76852;SDS011;65825;52.232;10.566;2023-01-20T09:17:50;15.93;;;7.10;;
76852;SDS011;65825;52.232;10.566;2023-01-20T09:20:15;17.70;;;7.33;;
76852;SDS011;65825;52.232;10.566;2023-01-20T09:22:41;20.30;;;8.63;;
76852;SDS011;65825;52.232;10.566;2023-01-20T09:25:07;19.95;;;10.70;;
76852;SDS011;65825;52.232;10.566;2023-01-20T09:27:33;24.70;;;10.27;;
76852;SDS011;65825;52.232;10.566;2023-01-20T09:29:58;22.17;;;10.40;;
76852;SDS011;65825;52.232;10.566;2023-01-20T09:32:23;23.83;;;10.73;;
76852;SDS011;65825;52.232;10.566;2023-01-20T09:34:48;20.57;;;10.33;;
76852;SDS011;65825;52.232;10.566;2023-01-20T09:37:14;23.43;;;10.67;;
76852;SDS011;65825;52.232;10.566;2023-01-20T09:39:57;24.77;;;11.82;;
76852;SDS011;65825;52.232;10.566;2023-01-20T09:42:52;25.25;;;11.25;;
76852;SDS011;65825;52.232;10.566;2023-01-20T09:46:16;23.80;;;11.45;;
76852;SDS011;65825;52.232;10.566;2023-01-20T09:55:11;14.27;;;7.38;;
76852;SDS011;65825;52.232;10.566;2023-01-20T09:57:41;13.10;;;7.25;;
76852;SDS011;65825;52.232;10.566;2023-01-20T10:00:14;13.52;;;6.88;;
76852;SDS011;65825;52.232;10.566;2023-01-20T10:02:46;12.88;;;7.50;;
76852;SDS011;65825;52.232;10.566;2023-01-20T10:05:20;15.02;;;8.60;;
76852;SDS011;65825;52.232;10.566;2023-01-20T10:07:57;18.60;;;10.40;;
76852;SDS011;65825;52.232;10.566;2023-01-20T10:13:26;18.40;;;10.48;;
76852;SDS011;65825;52.232;10.566;2023-01-20T10:15:58;16.45;;;9.40;;
76852;SDS011;65825;52.232;10.566;2023-01-20T10:18:32;15.57;;;9.90;;
76852;SDS011;65825;52.232;10.566;2023-01-20T10:23:41;15.30;;;8.80;;
76852;SDS011;65825;52.232;10.566;2023-01-20T10:26:25;17.15;;;8.65;;
76852;SDS011;65825;52.232;10.566;2023-01-20T10:31:31;15.32;;;8.00;;
76852;SDS011;65825;52.232;10.566;2023-01-20T10:34:02;13.30;;;8.57;;
76852;SDS011;65825;52.232;10.566;2023-01-20T10:36:32;15.77;;;9.18;;
76852;SDS011;65825;52.232;10.566;2023-01-20T10:41:38;17.27;;;10.07;;
76852;SDS011;65825;52.232;10.566;2023-01-20T10:46:45;17.45;;;9.75;;
76852;SDS011;65825;52.232;10.566;2023-01-20T10:52:27;14.35;;;8.25;;
76852;SDS011;65825;52.232;10.566;2023-01-20T10:55:15;16.13;;;9.75;;
76852;SDS011;65825;52.232;10.566;2023-01-20T11:00:35;15.95;;;8.10;;
76852;SDS011;65825;52.232;10.566;2023-01-20T11:03:03;14.60;;;8.15;;
76852;SDS011;65825;52.232;10.566;2023-01-20T11:05:36;22.63;;;10.65;;
76852;SDS011;65825;52.232;10.566;2023-01-20T11:08:05;15.30;;;9.27;;
76852;SDS011;65825;52.232;10.566;2023-01-20T11:10:38;17.38;;;8.27;;
76852;SDS011;65825;52.232;10.566;2023-01-20T11:13:07;14.45;;;7.70;;
76852;SDS011;65825;52.232;10.566;2023-01-20T11:15:37;14.02;;;8.18;;
76852;SDS011;65825;52.232;10.566;2023-01-20T11:20:40;15.25;;;8.20;;
76852;SDS011;65825;52.232;10.566;2023-01-20T11:23:22;16.35;;;8.45;;
76852;SDS011;65825;52.232;10.566;2023-01-20T11:26:07;13.13;;;7.85;;
76852;SDS011;65825;52.232;10.566;2023-01-20T11:28:50;16.08;;;8.68;;
76852;SDS011;65825;52.232;10.566;2023-01-20T11:31:17;11.82;;;7.57;;
76852;SDS011;65825;52.232;10.566;2023-01-20T11:39:30;14.77;;;7.65;;
76852;SDS011;65825;52.232;10.566;2023-01-20T11:42:13;16.25;;;7.63;;
76852;SDS011;65825;52.232;10.566;2023-01-20T11:44:48;13.93;;;7.45;;
76852;SDS011;65825;52.232;10.566;2023-01-20T11:49:45;13.05;;;7.28;;
76852;SDS011;65825;52.232;10.566;2023-01-20T11:52:18;16.07;;;7.77;;
76852;SDS011;65825;52.232;10.566;2023-01-20T11:54:44;14.30;;;7.40;;
76852;SDS011;65825;52.232;10.566;2023-01-20T11:57:11;16.83;;;8.50;;
76852;SDS011;65825;52.232;10.566;2023-01-20T11:59:47;17.63;;;8.48;;
76852;SDS011;65825;52.232;10.566;2023-01-20T12:07:36;15.23;;;8.80;;
76852;SDS011;65825;52.232;10.566;2023-01-20T12:13:00;13.30;;;7.55;;
76852;SDS011;65825;52.232;10.566;2023-01-20T12:21:13;13.60;;;7.07;;
76852;SDS011;65825;52.232;10.566;2023-01-20T12:23:51;14.73;;;7.47;;
76852;SDS011;65825;52.232;10.566;2023-01-20T12:26:21;11.98;;;7.47;;
76852;SDS011;65825;52.232;10.566;2023-01-20T12:28:52;15.02;;;8.00;;
76852;SDS011;65825;52.232;10.566;2023-01-20T12:31:26;15.85;;;8.13;;
76852;SDS011;65825;52.232;10.566;2023-01-20T12:34:04;18.92;;;8.73;;
76852;SDS011;65825;52.232;10.566;2023-01-20T12:45:03;13.70;;;8.70;;
76852;SDS011;65825;52.232;10.566;2023-01-20T12:47:47;15.95;;;8.45;;
76852;SDS011;65825;52.232;10.566;2023-01-20T13:09:53;12.57;;;7.03;;
76852;SDS011;65825;52.232;10.566;2023-01-20T13:12:34;16.42;;;6.63;;
76852;SDS011;65825;52.232;10.566;2023-01-20T13:18:05;16.92;;;8.02;;
76852;SDS011;65825;52.232;10.566;2023-01-20T13:20:42;16.17;;;7.63;;
76852;SDS011;65825;52.232;10.566;2023-01-20T13:23:10;14.10;;;7.10;;
76852;SDS011;65825;52.232;10.566;2023-01-20T13:25:40;13.98;;;6.97;;
76852;SDS011;65825;52.232;10.566;2023-01-20T13:28:13;13.57;;;6.88;;
76852;SDS011;65825;52.232;10.566;2023-01-20T13:30:42;14.48;;;7.30;;
76852;SDS011;65825;52.232;10.566;2023-01-20T13:33:31;13.73;;;6.95;;
76852;SDS011;65825;52.232;10.566;2023-01-20T13:35:57;15.48;;;7.93;;
76852;SDS011;65825;52.232;10.566;2023-01-20T13:38:25;17.00;;;7.50;;
76852;SDS011;65825;52.232;10.566;2023-01-20T13:40:55;16.17;;;7.80;;
76852;SDS011;65825;52.232;10.566;2023-01-20T13:46:35;20.00;;;8.40;;
76852;SDS011;65825;52.232;10.566;2023-01-20T13:49:10;21.50;;;9.00;;
76852;SDS011;65825;52.232;10.566;2023-01-20T13:51:47;17.17;;;7.72;;
76852;SDS011;65825;52.232;10.566;2023-01-20T13:56:46;16.63;;;7.75;;
76852;SDS011;65825;52.232;10.566;2023-01-20T13:59:12;21.23;;;8.05;;
76852;SDS011;65825;52.232;10.566;2023-01-20T14:01:37;19.60;;;8.37;;
76852;SDS011;65825;52.232;10.566;2023-01-20T14:04:04;13.20;;;6.47;;
76852;SDS011;65825;52.232;10.566;2023-01-20T14:06:31;13.40;;;7.10;;
76852;SDS011;65825;52.232;10.566;2023-01-20T14:08:59;14.32;;;7.28;;
76852;SDS011;65825;52.232;10.566;2023-01-20T14:11:26;17.25;;;7.72;;
76852;SDS011;65825;52.232;10.566;2023-01-20T14:13:53;19.50;;;8.05;;
76852;SDS011;65825;52.232;10.566;2023-01-20T14:19:04;17.00;;;8.02;;
76852;SDS011;65825;52.232;10.566;2023-01-20T14:21:42;18.52;;;9.07;;
76852;SDS011;65825;52.232;10.566;2023-01-20T14:27:13;15.27;;;7.88;;
76852;SDS011;65825;52.232;10.566;2023-01-20T14:29:45;22.77;;;8.50;;
76852;SDS011;65825;52.232;10.566;2023-01-20T14:32:18;15.35;;;7.72;;
76852;SDS011;65825;52.232;10.566;2023-01-20T14:34:46;16.25;;;7.07;;
76852;SDS011;65825;52.232;10.566;2023-01-20T14:37:17;16.60;;;6.65;;
76852;SDS011;65825;52.232;10.566;2023-01-20T14:39:48;13.88;;;6.20;;
76852;SDS011;65825;52.232;10.566;2023-01-20T14:42:18;15.88;;;6.85;;
76852;SDS011;65825;52.232;10.566;2023-01-20T14:44:46;14.25;;;6.63;;
76852;SDS011;65825;52.232;10.566;2023-01-20T14:49:38;15.38;;;6.75;;
76852;SDS011;65825;52.232;10.566;2023-01-20T14:52:04;12.63;;;6.50;;
76852;SDS011;65825;52.232;10.566;2023-01-20T14:57:03;15.02;;;7.22;;
76852;SDS011;65825;52.232;10.566;2023-01-20T14:59:42;13.57;;;7.13;;
76852;SDS011;65825;52.232;10.566;2023-01-20T15:02:13;14.95;;;7.97;;
76852;SDS011;65825;52.232;10.566;2023-01-20T15:04:43;16.73;;;8.63;;
76852;SDS011;65825;52.232;10.566;2023-01-20T15:07:15;18.67;;;8.50;;
76852;SDS011;65825;52.232;10.566;2023-01-20T15:09:47;20.30;;;9.20;;
76852;SDS011;65825;52.232;10.566;2023-01-20T15:18:04;21.33;;;10.57;;
76852;SDS011;65825;52.232;10.566;2023-01-20T15:20:31;20.50;;;8.73;;
76852;SDS011;65825;52.232;10.566;2023-01-20T15:23:00;25.65;;;12.23;;
76852;SDS011;65825;52.232;10.566;2023-01-20T15:25:26;27.25;;;12.02;;
76852;SDS011;65825;52.232;10.566;2023-01-20T15:27:56;29.60;;;10.93;;
76852;SDS011;65825;52.232;10.566;2023-01-20T15:30:22;24.45;;;10.15;;
76852;SDS011;65825;52.232;10.566;2023-01-20T15:32:51;19.70;;;8.93;;
76852;SDS011;65825;52.232;10.566;2023-01-20T15:35:19;22.42;;;9.45;;
76852;SDS011;65825;52.232;10.566;2023-01-20T15:37:47;19.95;;;8.18;;
76852;SDS011;65825;52.232;10.566;2023-01-20T15:40:20;15.77;;;7.85;;
76852;SDS011;65825;52.232;10.566;2023-01-20T15:42:47;14.73;;;7.07;;
76852;SDS011;65825;52.232;10.566;2023-01-20T15:45:13;15.35;;;7.03;;
76852;SDS011;65825;52.232;10.566;2023-01-20T15:47:39;14.43;;;6.78;;
76852;SDS011;65825;52.232;10.566;2023-01-20T15:50:10;16.02;;;6.75;;
76852;SDS011;65825;52.232;10.566;2023-01-20T15:52:38;16.00;;;6.68;;
76852;SDS011;65825;52.232;10.566;2023-01-20T15:55:03;12.30;;;6.40;;
76852;SDS011;65825;52.232;10.566;2023-01-20T15:57:28;14.98;;;6.68;;
76852;SDS011;65825;52.232;10.566;2023-01-20T15:59:54;13.65;;;6.28;;
76852;SDS011;65825;52.232;10.566;2023-01-20T16:02:20;13.00;;;6.03;;
76852;SDS011;65825;52.232;10.566;2023-01-20T16:04:46;13.80;;;6.15;;
76852;SDS011;65825;52.232;10.566;2023-01-20T16:07:15;14.07;;;5.82;;
76852;SDS011;65825;52.232;10.566;2023-01-20T16:09:42;13.48;;;6.43;;
76852;SDS011;65825;52.232;10.566;2023-01-20T16:12:11;13.55;;;6.75;;
76852;SDS011;65825;52.232;10.566;2023-01-20T16:14:38;12.48;;;5.97;;
76852;SDS011;65825;52.232;10.566;2023-01-20T16:17:09;13.63;;;6.30;;
76852;SDS011;65825;52.232;10.566;2023-01-20T16:19:37;12.43;;;5.53;;
76852;SDS011;65825;52.232;10.566;2023-01-20T16:22:03;9.82;;;5.70;;
76852;SDS011;65825;52.232;10.566;2023-01-20T16:24:30;13.55;;;6.05;;
76852;SDS011;65825;52.232;10.566;2023-01-20T16:26:55;11.93;;;5.93;;
76852;SDS011;65825;52.232;10.566;2023-01-20T16:29:21;14.13;;;5.90;;
76852;SDS011;65825;52.232;10.566;2023-01-20T16:31:46;14.10;;;5.97;;
76852;SDS011;65825;52.232;10.566;2023-01-20T16:34:11;13.10;;;5.97;;
76852;SDS011;65825;52.232;10.566;2023-01-20T16:36:36;13.17;;;5.87;;
76852;SDS011;65825;52.232;10.566;2023-01-20T16:39:02;11.97;;;5.57;;
76852;SDS011;65825;52.232;10.566;2023-01-20T16:41:27;17.20;;;6.00;;
76852;SDS011;65825;52.232;10.566;2023-01-20T16:43:55;11.82;;;5.80;;
76852;SDS011;65825;52.232;10.566;2023-01-20T16:48:50;14.18;;;5.97;;